sensor_id;sensor_type;location;lat;lon;timestamp;temperature;humidity
7472;DHT22;3777;48.722;8.110;2022-08-21T00:00:58;17.10;99.90
7472;DHT22;3777;48.722;8.110;2022-08-21T00:03:26;17.00;99.90
7472;DHT22;3777;48.722;8.110;2022-08-21T00:05:54;17.10;99.90
7472;DHT22;3777;48.722;8.110;2022-08-21T00:08:21;17.10;99.90
7472;DHT22;3777;48.722;8.110;2022-08-21T00:10:49;17.00;99.90
7472;DHT22;3777;48.722;8.110;2022-08-21T00:13:18;17.00;99.90
7472;DHT22;3777;48.722;8.110;2022-08-21T00:15:47;17.00;99.90
7472;DHT22;3777;48.722;8.110;2022-08-21T00:18:16;17.00;99.90
7472;DHT22;3777;48.722;8.110;2022-08-21T00:20:44;17.00;99.90
7472;DHT22;3777;48.722;8.110;2022-08-21T00:23:13;17.00;99.90
7472;DHT22;3777;48.722;8.110;2022-08-21T00:25:42;17.00;99.90
7472;DHT22;3777;48.722;8.110;2022-08-21T00:28:09;17.00;99.90
7472;DHT22;3777;48.722;8.110;2022-08-21T00:30:38;16.90;99.90
7472;DHT22;3777;48.722;8.110;2022-08-21T00:33:06;16.90;99.90
7472;DHT22;3777;48.722;8.110;2022-08-21T00:35:36;16.90;99.90
7472;DHT22;3777;48.722;8.110;2022-08-21T00:38:05;16.90;99.90
7472;DHT22;3777;48.722;8.110;2022-08-21T00:40:37;16.90;99.90
7472;DHT22;3777;48.722;8.110;2022-08-21T00:43:06;16.90;99.90
7472;DHT22;3777;48.722;8.110;2022-08-21T00:45:34;16.80;99.90
7472;DHT22;3777;48.722;8.110;2022-08-21T00:48:02;16.80;99.90
7472;DHT22;3777;48.722;8.110;2022-08-21T00:50:31;16.80;99.90
7472;DHT22;3777;48.722;8.110;2022-08-21T00:53:00;16.80;99.90
7472;DHT22;3777;48.722;8.110;2022-08-21T00:55:29;16.80;99.90
7472;DHT22;3777;48.722;8.110;2022-08-21T00:57:59;16.70;99.90
7472;DHT22;3777;48.722;8.110;2022-08-21T01:00:30;16.70;99.90
7472;DHT22;3777;48.722;8.110;2022-08-21T01:02:58;16.70;99.90
7472;DHT22;3777;48.722;8.110;2022-08-21T01:05:26;16.70;99.90
7472;DHT22;3777;48.722;8.110;2022-08-21T01:07:53;16.60;99.90
7472;DHT22;3777;48.722;8.110;2022-08-21T01:10:22;16.60;99.90
7472;DHT22;3777;48.722;8.110;2022-08-21T01:12:51;16.60;99.90
7472;DHT22;3777;48.722;8.110;2022-08-21T01:15:21;16.60;99.90
7472;DHT22;3777;48.722;8.110;2022-08-21T01:17:49;16.50;99.90
7472;DHT22;3777;48.722;8.110;2022-08-21T01:20:17;16.50;99.90
7472;DHT22;3777;48.722;8.110;2022-08-21T01:22:45;16.50;99.90
7472;DHT22;3777;48.722;8.110;2022-08-21T01:25:15;16.50;99.90
7472;DHT22;3777;48.722;8.110;2022-08-21T01:27:43;16.50;99.90
7472;DHT22;3777;48.722;8.110;2022-08-21T01:30:12;16.40;99.90
7472;DHT22;3777;48.722;8.110;2022-08-21T01:32:40;16.40;99.90
7472;DHT22;3777;48.722;8.110;2022-08-21T01:35:08;16.40;99.90
7472;DHT22;3777;48.722;8.110;2022-08-21T01:37:37;16.30;99.90
7472;DHT22;3777;48.722;8.110;2022-08-21T01:40:07;16.30;99.90
7472;DHT22;3777;48.722;8.110;2022-08-21T01:42:34;16.30;99.90
7472;DHT22;3777;48.722;8.110;2022-08-21T01:45:02;16.30;99.90
7472;DHT22;3777;48.722;8.110;2022-08-21T01:47:29;16.20;99.90
7472;DHT22;3777;48.722;8.110;2022-08-21T01:49:56;16.20;99.90
7472;DHT22;3777;48.722;8.110;2022-08-21T01:52:23;16.20;99.90
7472;DHT22;3777;48.722;8.110;2022-08-21T01:54:51;16.20;99.90
7472;DHT22;3777;48.722;8.110;2022-08-21T01:57:19;16.20;99.90
7472;DHT22;3777;48.722;8.110;2022-08-21T01:59:46;16.20;99.90
7472;DHT22;3777;48.722;8.110;2022-08-21T02:02:13;16.10;99.90
7472;DHT22;3777;48.722;8.110;2022-08-21T02:04:40;16.10;99.90
7472;DHT22;3777;48.722;8.110;2022-08-21T02:07:07;16.10;99.90
7472;DHT22;3777;48.722;8.110;2022-08-21T02:09:34;16.10;99.90
7472;DHT22;3777;48.722;8.110;2022-08-21T02:12:02;16.10;99.90
7472;DHT22;3777;48.722;8.110;2022-08-21T02:14:30;16.00;99.90
7472;DHT22;3777;48.722;8.110;2022-08-21T02:16:57;16.00;99.90
7472;DHT22;3777;48.722;8.110;2022-08-21T02:19:24;16.00;99.90
7472;DHT22;3777;48.722;8.110;2022-08-21T02:21:51;16.00;99.90
7472;DHT22;3777;48.722;8.110;2022-08-21T02:24:18;16.00;99.90
7472;DHT22;3777;48.722;8.110;2022-08-21T02:26:45;16.00;99.90
7472;DHT22;3777;48.722;8.110;2022-08-21T02:29:12;16.00;99.90
7472;DHT22;3777;48.722;8.110;2022-08-21T02:31:40;16.00;99.90
7472;DHT22;3777;48.722;8.110;2022-08-21T02:34:08;16.00;99.90
7472;DHT22;3777;48.722;8.110;2022-08-21T02:36:35;15.90;99.90
7472;DHT22;3777;48.722;8.110;2022-08-21T02:39:02;15.90;99.90
7472;DHT22;3777;48.722;8.110;2022-08-21T02:41:29;15.90;99.90
7472;DHT22;3777;48.722;8.110;2022-08-21T02:43:57;15.90;99.90
7472;DHT22;3777;48.722;8.110;2022-08-21T02:46:24;15.80;99.90
7472;DHT22;3777;48.722;8.110;2022-08-21T02:48:52;15.80;99.90
7472;DHT22;3777;48.722;8.110;2022-08-21T02:51:19;15.80;99.90
7472;DHT22;3777;48.722;8.110;2022-08-21T02:53:48;15.80;99.90
7472;DHT22;3777;48.722;8.110;2022-08-21T02:56:18;15.80;99.90
7472;DHT22;3777;48.722;8.110;2022-08-21T02:58:47;15.80;99.90
7472;DHT22;3777;48.722;8.110;2022-08-21T03:01:15;15.80;99.90
7472;DHT22;3777;48.722;8.110;2022-08-21T03:03:44;15.70;99.90
7472;DHT22;3777;48.722;8.110;2022-08-21T03:06:15;15.70;99.90
7472;DHT22;3777;48.722;8.110;2022-08-21T03:08:42;15.70;99.90
7472;DHT22;3777;48.722;8.110;2022-08-21T03:11:11;15.60;99.90
7472;DHT22;3777;48.722;8.110;2022-08-21T03:13:37;15.60;99.90
7472;DHT22;3777;48.722;8.110;2022-08-21T03:16:06;15.60;99.90
7472;DHT22;3777;48.722;8.110;2022-08-21T03:18:33;15.60;99.90
7472;DHT22;3777;48.722;8.110;2022-08-21T03:21:01;15.60;99.90
7472;DHT22;3777;48.722;8.110;2022-08-21T03:23:30;15.60;99.90
7472;DHT22;3777;48.722;8.110;2022-08-21T03:25:58;15.50;99.90
7472;DHT22;3777;48.722;8.110;2022-08-21T03:28:25;15.50;99.90
7472;DHT22;3777;48.722;8.110;2022-08-21T03:30:53;15.50;99.90
7472;DHT22;3777;48.722;8.110;2022-08-21T03:33:20;15.50;99.90
7472;DHT22;3777;48.722;8.110;2022-08-21T03:35:52;15.50;99.90
7472;DHT22;3777;48.722;8.110;2022-08-21T03:38:21;15.50;99.90
7472;DHT22;3777;48.722;8.110;2022-08-21T03:40:49;15.50;99.90
7472;DHT22;3777;48.722;8.110;2022-08-21T03:43:16;15.40;99.90
7472;DHT22;3777;48.722;8.110;2022-08-21T03:45:43;15.40;99.90
7472;DHT22;3777;48.722;8.110;2022-08-21T03:48:10;15.40;99.90
7472;DHT22;3777;48.722;8.110;2022-08-21T03:50:40;15.40;99.90
7472;DHT22;3777;48.722;8.110;2022-08-21T03:53:08;15.30;99.90
7472;DHT22;3777;48.722;8.110;2022-08-21T03:55:35;15.30;99.90
7472;DHT22;3777;48.722;8.110;2022-08-21T03:58:04;15.30;99.90
7472;DHT22;3777;48.722;8.110;2022-08-21T04:00:31;15.20;99.90
7472;DHT22;3777;48.722;8.110;2022-08-21T04:02:58;15.20;99.90
7472;DHT22;3777;48.722;8.110;2022-08-21T04:05:26;15.20;99.90
7472;DHT22;3777;48.722;8.110;2022-08-21T04:07:57;15.20;99.90
7472;DHT22;3777;48.722;8.110;2022-08-21T04:10:25;15.10;99.90
7472;DHT22;3777;48.722;8.110;2022-08-21T04:12:54;15.10;99.90
7472;DHT22;3777;48.722;8.110;2022-08-21T04:15:24;15.10;99.90
7472;DHT22;3777;48.722;8.110;2022-08-21T04:17:52;15.00;99.90
7472;DHT22;3777;48.722;8.110;2022-08-21T04:20:20;15.00;99.90
7472;DHT22;3777;48.722;8.110;2022-08-21T04:22:47;15.00;99.90
7472;DHT22;3777;48.722;8.110;2022-08-21T04:25:15;15.00;99.90
7472;DHT22;3777;48.722;8.110;2022-08-21T04:27:43;15.00;99.90
7472;DHT22;3777;48.722;8.110;2022-08-21T04:30:11;14.90;99.90
7472;DHT22;3777;48.722;8.110;2022-08-21T04:32:42;14.90;99.90
7472;DHT22;3777;48.722;8.110;2022-08-21T04:35:10;14.90;99.90
7472;DHT22;3777;48.722;8.110;2022-08-21T04:37:37;14.80;99.90
7472;DHT22;3777;48.722;8.110;2022-08-21T04:40:06;14.80;99.90
7472;DHT22;3777;48.722;8.110;2022-08-21T04:42:42;14.80;99.90
7472;DHT22;3777;48.722;8.110;2022-08-21T04:45:16;14.80;99.90
7472;DHT22;3777;48.722;8.110;2022-08-21T04:47:47;14.80;99.90
7472;DHT22;3777;48.722;8.110;2022-08-21T04:50:14;14.90;99.90
7472;DHT22;3777;48.722;8.110;2022-08-21T04:52:41;14.90;99.90
7472;DHT22;3777;48.722;8.110;2022-08-21T04:55:09;14.90;99.90
7472;DHT22;3777;48.722;8.110;2022-08-21T04:57:37;14.90;99.90
7472;DHT22;3777;48.722;8.110;2022-08-21T05:00:06;14.90;99.90
7472;DHT22;3777;48.722;8.110;2022-08-21T05:02:33;15.00;99.90
7472;DHT22;3777;48.722;8.110;2022-08-21T05:05:01;15.00;99.90
7472;DHT22;3777;48.722;8.110;2022-08-21T05:07:29;15.10;99.90
7472;DHT22;3777;48.722;8.110;2022-08-21T05:09:59;15.10;99.90
7472;DHT22;3777;48.722;8.110;2022-08-21T05:12:27;15.20;99.90
7472;DHT22;3777;48.722;8.110;2022-08-21T05:14:54;15.20;99.90
7472;DHT22;3777;48.722;8.110;2022-08-21T05:17:20;15.30;99.90
7472;DHT22;3777;48.722;8.110;2022-08-21T05:19:48;15.30;99.90
7472;DHT22;3777;48.722;8.110;2022-08-21T05:22:20;15.40;99.90
7472;DHT22;3777;48.722;8.110;2022-08-21T05:24:48;15.50;99.90
7472;DHT22;3777;48.722;8.110;2022-08-21T05:27:15;15.50;99.90
7472;DHT22;3777;48.722;8.110;2022-08-21T05:29:42;15.60;99.90
7472;DHT22;3777;48.722;8.110;2022-08-21T05:32:10;15.70;99.90
7472;DHT22;3777;48.722;8.110;2022-08-21T05:34:37;15.80;99.90
7472;DHT22;3777;48.722;8.110;2022-08-21T05:37:05;15.90;99.90
7472;DHT22;3777;48.722;8.110;2022-08-21T05:39:33;16.00;99.90
7472;DHT22;3777;48.722;8.110;2022-08-21T05:42:00;16.10;99.90
7472;DHT22;3777;48.722;8.110;2022-08-21T05:44:27;16.20;99.90
7472;DHT22;3777;48.722;8.110;2022-08-21T05:46:54;16.30;99.90
7472;DHT22;3777;48.722;8.110;2022-08-21T05:49:21;16.40;99.90
7472;DHT22;3777;48.722;8.110;2022-08-21T05:51:48;16.60;99.90
7472;DHT22;3777;48.722;8.110;2022-08-21T05:54:15;16.70;99.90
7472;DHT22;3777;48.722;8.110;2022-08-21T05:56:43;16.80;99.90
7472;DHT22;3777;48.722;8.110;2022-08-21T05:59:11;17.00;99.90
7472;DHT22;3777;48.722;8.110;2022-08-21T06:01:39;17.10;99.90
7472;DHT22;3777;48.722;8.110;2022-08-21T06:04:06;17.30;99.90
7472;DHT22;3777;48.722;8.110;2022-08-21T06:06:34;17.60;99.90
7472;DHT22;3777;48.722;8.110;2022-08-21T06:09:01;18.00;99.90
7472;DHT22;3777;48.722;8.110;2022-08-21T06:11:29;18.50;99.90
7472;DHT22;3777;48.722;8.110;2022-08-21T06:13:58;19.00;99.90
7472;DHT22;3777;48.722;8.110;2022-08-21T06:16:25;19.60;99.90
7472;DHT22;3777;48.722;8.110;2022-08-21T06:18:53;20.10;99.90
7472;DHT22;3777;48.722;8.110;2022-08-21T06:21:20;20.50;99.90
7472;DHT22;3777;48.722;8.110;2022-08-21T06:23:47;21.10;99.90
7472;DHT22;3777;48.722;8.110;2022-08-21T06:26:14;21.60;99.90
7472;DHT22;3777;48.722;8.110;2022-08-21T06:28:42;22.10;99.90
7472;DHT22;3777;48.722;8.110;2022-08-21T06:31:17;22.50;99.90
7472;DHT22;3777;48.722;8.110;2022-08-21T06:33:44;22.60;99.90
7472;DHT22;3777;48.722;8.110;2022-08-21T06:36:12;22.40;99.90
7472;DHT22;3777;48.722;8.110;2022-08-21T06:38:39;22.00;99.90
7472;DHT22;3777;48.722;8.110;2022-08-21T06:41:07;21.70;99.90
7472;DHT22;3777;48.722;8.110;2022-08-21T06:43:34;21.50;99.90
7472;DHT22;3777;48.722;8.110;2022-08-21T06:46:01;21.20;99.90
7472;DHT22;3777;48.722;8.110;2022-08-21T06:48:30;21.00;99.90
7472;DHT22;3777;48.722;8.110;2022-08-21T06:50:58;20.80;99.90
7472;DHT22;3777;48.722;8.110;2022-08-21T06:53:25;20.60;99.90
7472;DHT22;3777;48.722;8.110;2022-08-21T06:55:53;20.50;99.90
7472;DHT22;3777;48.722;8.110;2022-08-21T06:58:20;20.60;99.90
7472;DHT22;3777;48.722;8.110;2022-08-21T07:00:49;20.70;99.90
7472;DHT22;3777;48.722;8.110;2022-08-21T07:03:19;20.70;99.90
7472;DHT22;3777;48.722;8.110;2022-08-21T07:05:48;20.80;99.90
7472;DHT22;3777;48.722;8.110;2022-08-21T07:08:15;20.90;99.90
7472;DHT22;3777;48.722;8.110;2022-08-21T07:10:43;21.10;99.90
7472;DHT22;3777;48.722;8.110;2022-08-21T07:13:10;21.20;99.90
7472;DHT22;3777;48.722;8.110;2022-08-21T07:15:38;21.30;99.90
7472;DHT22;3777;48.722;8.110;2022-08-21T07:18:05;21.40;99.90
7472;DHT22;3777;48.722;8.110;2022-08-21T07:20:33;21.20;99.90
7472;DHT22;3777;48.722;8.110;2022-08-21T07:23:04;21.30;99.90
7472;DHT22;3777;48.722;8.110;2022-08-21T07:25:31;21.40;99.90
7472;DHT22;3777;48.722;8.110;2022-08-21T07:27:58;21.60;99.90
7472;DHT22;3777;48.722;8.110;2022-08-21T07:30:25;21.70;99.90
7472;DHT22;3777;48.722;8.110;2022-08-21T07:32:53;21.80;99.90
7472;DHT22;3777;48.722;8.110;2022-08-21T07:35:21;22.00;99.90
7472;DHT22;3777;48.722;8.110;2022-08-21T07:37:48;22.10;99.90
7472;DHT22;3777;48.722;8.110;2022-08-21T07:40:17;22.20;99.90
7472;DHT22;3777;48.722;8.110;2022-08-21T07:42:46;22.30;99.90
7472;DHT22;3777;48.722;8.110;2022-08-21T07:45:15;22.30;99.90
7472;DHT22;3777;48.722;8.110;2022-08-21T07:47:43;22.30;99.90
7472;DHT22;3777;48.722;8.110;2022-08-21T07:50:11;22.40;99.90
7472;DHT22;3777;48.722;8.110;2022-08-21T07:52:39;22.60;99.90
7472;DHT22;3777;48.722;8.110;2022-08-21T07:55:07;22.70;99.90
7472;DHT22;3777;48.722;8.110;2022-08-21T07:57:35;22.90;99.90
7472;DHT22;3777;48.722;8.110;2022-08-21T08:00:03;23.10;99.90
7472;DHT22;3777;48.722;8.110;2022-08-21T08:02:31;23.30;99.90
7472;DHT22;3777;48.722;8.110;2022-08-21T08:04:59;23.20;99.90
7472;DHT22;3777;48.722;8.110;2022-08-21T08:07:27;23.10;99.90
7472;DHT22;3777;48.722;8.110;2022-08-21T08:09:54;23.10;99.90
7472;DHT22;3777;48.722;8.110;2022-08-21T08:12:21;23.30;99.90
7472;DHT22;3777;48.722;8.110;2022-08-21T08:14:50;23.30;99.90
7472;DHT22;3777;48.722;8.110;2022-08-21T08:17:17;23.50;99.90
7472;DHT22;3777;48.722;8.110;2022-08-21T08:19:47;23.60;99.90
7472;DHT22;3777;48.722;8.110;2022-08-21T08:22:15;23.60;99.90
7472;DHT22;3777;48.722;8.110;2022-08-21T08:24:44;23.80;99.90
7472;DHT22;3777;48.722;8.110;2022-08-21T08:27:11;24.10;99.90
7472;DHT22;3777;48.722;8.110;2022-08-21T08:29:39;24.20;99.90
7472;DHT22;3777;48.722;8.110;2022-08-21T08:32:07;24.50;99.90
7472;DHT22;3777;48.722;8.110;2022-08-21T08:34:34;24.70;99.90
7472;DHT22;3777;48.722;8.110;2022-08-21T08:37:02;24.90;99.90
7472;DHT22;3777;48.722;8.110;2022-08-21T08:39:30;25.00;99.90
7472;DHT22;3777;48.722;8.110;2022-08-21T08:42:01;25.20;99.90
7472;DHT22;3777;48.722;8.110;2022-08-21T08:44:31;25.40;99.90
7472;DHT22;3777;48.722;8.110;2022-08-21T08:47:01;25.60;99.90
7472;DHT22;3777;48.722;8.110;2022-08-21T08:49:36;25.80;99.90
7472;DHT22;3777;48.722;8.110;2022-08-21T08:52:18;26.00;99.90
7472;DHT22;3777;48.722;8.110;2022-08-21T08:54:50;26.30;99.90
7472;DHT22;3777;48.722;8.110;2022-08-21T08:57:20;26.40;99.90
7472;DHT22;3777;48.722;8.110;2022-08-21T08:59:51;26.30;99.40
7472;DHT22;3777;48.722;8.110;2022-08-21T09:02:19;26.40;99.90
7472;DHT22;3777;48.722;8.110;2022-08-21T09:04:49;26.30;99.90
7472;DHT22;3777;48.722;8.110;2022-08-21T09:07:22;26.70;99.90
7472;DHT22;3777;48.722;8.110;2022-08-21T09:10:04;26.90;99.90
7472;DHT22;3777;48.722;8.110;2022-08-21T09:12:41;27.30;99.00
7472;DHT22;3777;48.722;8.110;2022-08-21T09:15:15;27.80;98.90
7472;DHT22;3777;48.722;8.110;2022-08-21T09:17:59;28.20;98.00
7472;DHT22;3777;48.722;8.110;2022-08-21T09:20:38;28.50;95.30
7472;DHT22;3777;48.722;8.110;2022-08-21T09:23:15;28.80;93.40
7472;DHT22;3777;48.722;8.110;2022-08-21T09:25:53;29.20;91.80
7472;DHT22;3777;48.722;8.110;2022-08-21T09:28:21;29.50;91.30
7472;DHT22;3777;48.722;8.110;2022-08-21T09:30:48;29.60;90.40
7472;DHT22;3777;48.722;8.110;2022-08-21T09:33:17;29.60;88.30
7472;DHT22;3777;48.722;8.110;2022-08-21T09:35:54;30.00;90.40
7472;DHT22;3777;48.722;8.110;2022-08-21T09:38:29;29.80;84.00
7472;DHT22;3777;48.722;8.110;2022-08-21T09:41:00;30.30;86.10
7472;DHT22;3777;48.722;8.110;2022-08-21T09:43:28;30.60;81.50
7472;DHT22;3777;48.722;8.110;2022-08-21T09:46:05;31.60;84.00
7472;DHT22;3777;48.722;8.110;2022-08-21T09:48:43;32.40;77.30
7472;DHT22;3777;48.722;8.110;2022-08-21T09:51:14;32.30;71.10
7472;DHT22;3777;48.722;8.110;2022-08-21T09:53:48;33.10;71.00
7472;DHT22;3777;48.722;8.110;2022-08-21T09:56:26;33.30;67.60
7472;DHT22;3777;48.722;8.110;2022-08-21T09:59:17;33.10;59.70
7472;DHT22;3777;48.722;8.110;2022-08-21T10:01:46;33.80;61.10
7472;DHT22;3777;48.722;8.110;2022-08-21T10:04:14;35.30;60.20
7472;DHT22;3777;48.722;8.110;2022-08-21T10:06:42;36.10;58.40
7472;DHT22;3777;48.722;8.110;2022-08-21T10:09:13;37.40;51.90
7472;DHT22;3777;48.722;8.110;2022-08-21T10:11:45;38.40;49.40
7472;DHT22;3777;48.722;8.110;2022-08-21T10:14:21;38.30;48.40
7472;DHT22;3777;48.722;8.110;2022-08-21T10:16:59;39.40;45.20
7472;DHT22;3777;48.722;8.110;2022-08-21T10:19:35;40.30;43.50
7472;DHT22;3777;48.722;8.110;2022-08-21T10:22:15;41.00;43.20
7472;DHT22;3777;48.722;8.110;2022-08-21T10:24:52;40.70;40.80
7472;DHT22;3777;48.722;8.110;2022-08-21T10:27:29;41.50;37.90
7472;DHT22;3777;48.722;8.110;2022-08-21T10:30:03;42.20;35.60
7472;DHT22;3777;48.722;8.110;2022-08-21T10:32:55;42.90;35.10
7472;DHT22;3777;48.722;8.110;2022-08-21T10:35:26;43.40;35.10
7472;DHT22;3777;48.722;8.110;2022-08-21T10:38:31;43.40;31.10
7472;DHT22;3777;48.722;8.110;2022-08-21T10:41:08;43.60;29.50
7472;DHT22;3777;48.722;8.110;2022-08-21T10:43:50;43.80;29.30
7472;DHT22;3777;48.722;8.110;2022-08-21T10:46:24;44.10;28.60
7472;DHT22;3777;48.722;8.110;2022-08-21T10:48:58;43.80;28.80
7472;DHT22;3777;48.722;8.110;2022-08-21T10:51:32;41.70;29.10
7472;DHT22;3777;48.722;8.110;2022-08-21T10:54:05;40.10;30.50
7472;DHT22;3777;48.722;8.110;2022-08-21T10:56:36;39.10;31.40
7472;DHT22;3777;48.722;8.110;2022-08-21T10:59:18;37.00;33.30
7472;DHT22;3777;48.722;8.110;2022-08-21T11:01:51;38.10;33.20
7472;DHT22;3777;48.722;8.110;2022-08-21T11:04:24;38.60;32.30
7472;DHT22;3777;48.722;8.110;2022-08-21T11:06:59;39.00;32.30
7472;DHT22;3777;48.722;8.110;2022-08-21T11:09:30;38.90;33.30
7472;DHT22;3777;48.722;8.110;2022-08-21T11:12:01;38.00;34.80
7472;DHT22;3777;48.722;8.110;2022-08-21T11:14:36;35.00;34.80
7472;DHT22;3777;48.722;8.110;2022-08-21T11:17:08;33.80;37.60
7472;DHT22;3777;48.722;8.110;2022-08-21T11:19:42;33.00;39.90
7472;DHT22;3777;48.722;8.110;2022-08-21T11:22:14;32.80;42.40
7472;DHT22;3777;48.722;8.110;2022-08-21T11:24:49;32.60;43.00
7472;DHT22;3777;48.722;8.110;2022-08-21T11:27:22;32.50;43.70
7472;DHT22;3777;48.722;8.110;2022-08-21T11:29:53;32.40;42.80
7472;DHT22;3777;48.722;8.110;2022-08-21T11:32:44;32.20;39.80
7472;DHT22;3777;48.722;8.110;2022-08-21T11:35:23;31.90;40.50
7472;DHT22;3777;48.722;8.110;2022-08-21T11:38:00;31.40;41.10
7472;DHT22;3777;48.722;8.110;2022-08-21T11:40:49;31.20;42.30
7472;DHT22;3777;48.722;8.110;2022-08-21T11:43:27;31.00;42.90
7472;DHT22;3777;48.722;8.110;2022-08-21T11:46:07;30.90;44.00
7472;DHT22;3777;48.722;8.110;2022-08-21T11:48:50;30.50;44.70
7472;DHT22;3777;48.722;8.110;2022-08-21T11:51:26;30.40;45.40
7472;DHT22;3777;48.722;8.110;2022-08-21T11:54:00;30.40;48.10
7472;DHT22;3777;48.722;8.110;2022-08-21T11:56:33;30.40;44.90
7472;DHT22;3777;48.722;8.110;2022-08-21T11:59:06;30.30;43.60
7472;DHT22;3777;48.722;8.110;2022-08-21T12:01:38;30.00;44.20
7472;DHT22;3777;48.722;8.110;2022-08-21T12:04:15;29.90;44.00
7472;DHT22;3777;48.722;8.110;2022-08-21T12:06:43;29.80;44.40
7472;DHT22;3777;48.722;8.110;2022-08-21T12:09:26;29.60;44.70
7472;DHT22;3777;48.722;8.110;2022-08-21T12:12:03;29.60;45.50
7472;DHT22;3777;48.722;8.110;2022-08-21T12:14:42;29.60;44.80
7472;DHT22;3777;48.722;8.110;2022-08-21T12:17:18;29.50;45.60
7472;DHT22;3777;48.722;8.110;2022-08-21T12:19:57;29.50;45.20
7472;DHT22;3777;48.722;8.110;2022-08-21T12:22:36;29.50;45.00
7472;DHT22;3777;48.722;8.110;2022-08-21T12:25:06;29.30;47.40
7472;DHT22;3777;48.722;8.110;2022-08-21T12:27:45;29.40;46.60
7472;DHT22;3777;48.722;8.110;2022-08-21T12:30:22;29.60;47.70
7472;DHT22;3777;48.722;8.110;2022-08-21T12:32:57;29.60;47.30
7472;DHT22;3777;48.722;8.110;2022-08-21T12:35:27;29.70;45.80
7472;DHT22;3777;48.722;8.110;2022-08-21T12:38:02;29.70;44.20
7472;DHT22;3777;48.722;8.110;2022-08-21T12:40:39;29.60;44.70
7472;DHT22;3777;48.722;8.110;2022-08-21T12:43:14;29.60;47.10
7472;DHT22;3777;48.722;8.110;2022-08-21T12:45:44;29.60;45.50
7472;DHT22;3777;48.722;8.110;2022-08-21T12:48:16;29.40;44.40
7472;DHT22;3777;48.722;8.110;2022-08-21T12:50:48;29.30;45.30
7472;DHT22;3777;48.722;8.110;2022-08-21T12:53:25;29.20;46.10
7472;DHT22;3777;48.722;8.110;2022-08-21T12:55:54;29.20;45.70
7472;DHT22;3777;48.722;8.110;2022-08-21T12:58:31;29.20;44.90
7472;DHT22;3777;48.722;8.110;2022-08-21T13:01:03;28.90;45.30
7472;DHT22;3777;48.722;8.110;2022-08-21T13:03:30;28.70;48.50
7472;DHT22;3777;48.722;8.110;2022-08-21T13:05:58;28.70;51.10
7472;DHT22;3777;48.722;8.110;2022-08-21T13:08:26;28.80;47.10
7472;DHT22;3777;48.722;8.110;2022-08-21T13:10:58;28.80;47.00
7472;DHT22;3777;48.722;8.110;2022-08-21T13:13:27;28.90;48.60
7472;DHT22;3777;48.722;8.110;2022-08-21T13:15:59;28.90;46.60
7472;DHT22;3777;48.722;8.110;2022-08-21T13:18:29;28.90;49.50
7472;DHT22;3777;48.722;8.110;2022-08-21T13:21:05;29.00;46.20
7472;DHT22;3777;48.722;8.110;2022-08-21T13:23:33;29.00;47.20
7472;DHT22;3777;48.722;8.110;2022-08-21T13:26:00;29.00;47.10
7472;DHT22;3777;48.722;8.110;2022-08-21T13:28:33;29.10;47.30
7472;DHT22;3777;48.722;8.110;2022-08-21T13:31:08;29.20;46.60
7472;DHT22;3777;48.722;8.110;2022-08-21T13:33:38;29.20;45.30
7472;DHT22;3777;48.722;8.110;2022-08-21T13:36:09;29.10;45.20
7472;DHT22;3777;48.722;8.110;2022-08-21T13:38:40;29.00;48.80
7472;DHT22;3777;48.722;8.110;2022-08-21T13:41:12;29.00;47.10
7472;DHT22;3777;48.722;8.110;2022-08-21T13:43:46;29.00;48.80
7472;DHT22;3777;48.722;8.110;2022-08-21T13:46:17;29.00;47.80
7472;DHT22;3777;48.722;8.110;2022-08-21T13:48:44;29.10;46.70
7472;DHT22;3777;48.722;8.110;2022-08-21T13:51:12;29.00;48.20
7472;DHT22;3777;48.722;8.110;2022-08-21T13:53:46;29.10;46.20
7472;DHT22;3777;48.722;8.110;2022-08-21T13:56:28;29.10;49.00
7472;DHT22;3777;48.722;8.110;2022-08-21T13:58:57;29.00;47.40
7472;DHT22;3777;48.722;8.110;2022-08-21T14:01:28;29.00;48.20
7472;DHT22;3777;48.722;8.110;2022-08-21T14:04:01;29.00;46.00
7472;DHT22;3777;48.722;8.110;2022-08-21T14:06:33;28.90;46.10
7472;DHT22;3777;48.722;8.110;2022-08-21T14:09:07;28.90;47.00
7472;DHT22;3777;48.722;8.110;2022-08-21T14:11:35;28.80;48.00
7472;DHT22;3777;48.722;8.110;2022-08-21T14:14:05;28.90;46.90
7472;DHT22;3777;48.722;8.110;2022-08-21T14:16:43;29.00;46.50
7472;DHT22;3777;48.722;8.110;2022-08-21T14:19:18;29.00;45.30
7472;DHT22;3777;48.722;8.110;2022-08-21T14:21:46;28.90;44.20
7472;DHT22;3777;48.722;8.110;2022-08-21T14:24:24;28.90;44.70
7472;DHT22;3777;48.722;8.110;2022-08-21T14:26:53;28.90;44.30
7472;DHT22;3777;48.722;8.110;2022-08-21T14:29:22;28.90;44.00
7472;DHT22;3777;48.722;8.110;2022-08-21T14:31:56;28.70;45.80
7472;DHT22;3777;48.722;8.110;2022-08-21T14:34:25;28.70;46.40
7472;DHT22;3777;48.722;8.110;2022-08-21T14:36:53;28.70;45.50
7472;DHT22;3777;48.722;8.110;2022-08-21T14:39:20;28.70;44.50
7472;DHT22;3777;48.722;8.110;2022-08-21T14:41:48;28.60;45.30
7472;DHT22;3777;48.722;8.110;2022-08-21T14:44:16;28.60;46.40
7472;DHT22;3777;48.722;8.110;2022-08-21T14:46:43;28.60;49.00
7472;DHT22;3777;48.722;8.110;2022-08-21T14:49:13;28.60;48.20
7472;DHT22;3777;48.722;8.110;2022-08-21T14:51:40;28.70;46.60
7472;DHT22;3777;48.722;8.110;2022-08-21T14:54:07;28.60;46.40
7472;DHT22;3777;48.722;8.110;2022-08-21T14:56:35;28.70;46.50
7472;DHT22;3777;48.722;8.110;2022-08-21T14:59:05;28.60;46.40
7472;DHT22;3777;48.722;8.110;2022-08-21T15:01:35;28.60;45.20
7472;DHT22;3777;48.722;8.110;2022-08-21T15:04:03;28.60;44.90
7472;DHT22;3777;48.722;8.110;2022-08-21T15:06:32;28.60;47.70
7472;DHT22;3777;48.722;8.110;2022-08-21T15:08:59;28.60;47.70
7472;DHT22;3777;48.722;8.110;2022-08-21T15:11:27;28.60;45.70
7472;DHT22;3777;48.722;8.110;2022-08-21T15:13:56;28.60;45.90
7472;DHT22;3777;48.722;8.110;2022-08-21T15:16:24;28.60;48.60
7472;DHT22;3777;48.722;8.110;2022-08-21T15:18:53;28.50;47.50
7472;DHT22;3777;48.722;8.110;2022-08-21T15:21:20;28.50;46.00
7472;DHT22;3777;48.722;8.110;2022-08-21T15:23:49;28.50;44.90
7472;DHT22;3777;48.722;8.110;2022-08-21T15:26:16;28.40;45.30
7472;DHT22;3777;48.722;8.110;2022-08-21T15:28:43;28.30;45.80
7472;DHT22;3777;48.722;8.110;2022-08-21T15:31:10;28.20;46.60
7472;DHT22;3777;48.722;8.110;2022-08-21T15:33:37;28.10;48.30
7472;DHT22;3777;48.722;8.110;2022-08-21T15:36:04;28.20;47.30
7472;DHT22;3777;48.722;8.110;2022-08-21T15:38:31;28.20;45.40
7472;DHT22;3777;48.722;8.110;2022-08-21T15:41:01;28.20;46.60
7472;DHT22;3777;48.722;8.110;2022-08-21T15:43:35;28.20;47.40
7472;DHT22;3777;48.722;8.110;2022-08-21T15:46:03;28.20;46.20
7472;DHT22;3777;48.722;8.110;2022-08-21T15:48:31;28.20;45.40
7472;DHT22;3777;48.722;8.110;2022-08-21T15:50:58;28.20;46.00
7472;DHT22;3777;48.722;8.110;2022-08-21T15:53:25;28.20;45.00
7472;DHT22;3777;48.722;8.110;2022-08-21T15:55:53;28.10;45.60
7472;DHT22;3777;48.722;8.110;2022-08-21T15:58:22;28.10;44.80
7472;DHT22;3777;48.722;8.110;2022-08-21T16:00:49;28.10;45.10
7472;DHT22;3777;48.722;8.110;2022-08-21T16:03:17;28.10;44.00
7472;DHT22;3777;48.722;8.110;2022-08-21T16:05:47;28.00;43.90
7472;DHT22;3777;48.722;8.110;2022-08-21T16:08:17;28.00;44.70
7472;DHT22;3777;48.722;8.110;2022-08-21T16:10:45;28.00;45.20
7472;DHT22;3777;48.722;8.110;2022-08-21T16:13:16;27.90;44.70
7472;DHT22;3777;48.722;8.110;2022-08-21T16:15:45;27.90;43.80
7472;DHT22;3777;48.722;8.110;2022-08-21T16:18:13;28.00;42.10
7472;DHT22;3777;48.722;8.110;2022-08-21T16:20:40;28.00;42.60